Time;durP1;ratioP1;P1;durP2;ratioP2;P2;SDS_P1;SDS_P2;PMS_P1;PMS_P2;Temp;Humidity;BMP_temperature;BMP_pressure;BME280_temperature;BME280_humidity;BME280_pressure;Samples;Min_cycle;Max_cycle;Signal;HPM_P1;HPM_P2
2021/04/28 00:01:42;;;;;;;9.20;6.25;;;6.80;99.90;;;;;;6307661;22;20094;-77
2021/04/28 00:04:14;;;;;;;13.82;6.82;;;6.80;99.90;;;;;;6255789;22;20097;-78
2021/04/28 00:06:45;;;;;;;7.68;5.70;;;6.80;99.90;;;;;;6280793;22;20098;-77
2021/04/28 00:09:17;;;;;;;8.13;6.30;;;6.80;99.90;;;;;;6280267;22;20532;-77
2021/04/28 00:11:48;;;;;;;8.75;6.03;;;6.70;99.90;;;;;;6255102;22;20046;-78
2021/04/28 00:14:20;;;;;;;9.07;5.93;;;6.70;99.90;;;;;;6279549;22;20106;-77
2021/04/28 00:16:51;;;;;;;10.93;7.32;;;6.70;99.90;;;;;;6280428;22;20026;-77
2021/04/28 00:19:22;;;;;;;9.75;5.88;;;6.70;99.90;;;;;;6255378;22;20020;-78
2021/04/28 00:21:54;;;;;;;7.50;5.90;;;6.60;99.90;;;;;;6281765;22;20021;-78
2021/04/28 00:24:26;;;;;;;8.85;6.60;;;6.60;99.90;;;;;;6306919;22;20375;-77
2021/04/28 00:26:57;;;;;;;8.43;5.97;;;6.50;99.90;;;;;;6279814;22;20043;-78
2021/04/28 00:29:28;;;;;;;8.57;5.95;;;6.50;99.90;;;;;;6279894;22;20022;-78
2021/04/28 00:32:00;;;;;;;9.50;6.13;;;6.50;99.90;;;;;;6255926;22;20111;-78
2021/04/28 00:34:31;;;;;;;10.77;6.57;;;6.50;99.90;;;;;;6279754;22;20011;-78
2021/04/28 00:37:03;;;;;;;8.88;6.25;;;6.50;99.90;;;;;;6279901;22;20015;-78
2021/04/28 00:39:34;;;;;;;7.88;5.40;;;6.50;99.90;;;;;;6279816;22;20015;-77
2021/04/28 00:42:06;;;;;;;9.65;6.68;;;6.40;99.90;;;;;;6281736;22;20090;-77
2021/04/28 00:44:37;;;;;;;9.15;6.22;;;6.30;99.90;;;;;;6279686;22;20526;-77
2021/04/28 00:47:09;;;;;;;11.05;6.13;;;6.20;99.90;;;;;;6280304;22;20019;-77
2021/04/28 00:49:41;;;;;;;12.23;6.50;;;6.20;99.90;;;;;;6279961;22;20012;-77
2021/04/28 00:52:13;;;;;;;8.40;5.88;;;6.10;99.90;;;;;;6306909;22;20042;-77
2021/04/28 00:54:45;;;;;;;11.20;6.93;;;6.10;99.90;;;;;;6280359;22;20015;-78
2021/04/28 00:57:17;;;;;;;9.90;6.65;;;6.10;99.90;;;;;;6279631;22;20019;-78
2021/04/28 00:59:48;;;;;;;11.07;6.22;;;6.10;99.90;;;;;;6255333;22;20482;-78
2021/04/28 01:02:20;;;;;;;9.15;6.93;;;6.00;99.90;;;;;;6254816;22;20451;-78
2021/04/28 01:04:51;;;;;;;11.18;6.97;;;6.00;99.90;;;;;;6253880;22;20391;-77
2021/04/28 01:07:25;;;;;;;9.93;7.82;;;5.90;99.90;;;;;;6255319;22;20015;-78
2021/04/28 01:09:58;;;;;;;14.70;8.10;;;5.90;99.90;;;;;;6279233;22;20459;-78
2021/04/28 01:12:32;;;;;;;9.63;7.22;;;5.80;99.90;;;;;;6255104;22;20015;-77
2021/04/28 01:15:06;;;;;;;10.07;7.15;;;5.70;99.90;;;;;;6306510;22;20034;-78
2021/04/28 01:17:39;;;;;;;9.65;7.13;;;5.70;99.90;;;;;;6255059;22;20019;-78
2021/04/28 01:20:12;;;;;;;10.45;6.57;;;5.60;99.90;;;;;;6279101;22;20019;-77
2021/04/28 01:22:45;;;;;;;8.63;7.05;;;5.60;99.90;;;;;;6280690;22;20011;-78
2021/04/28 01:25:22;;;;;;;8.52;6.47;;;5.70;99.90;;;;;;6282974;22;20043;-77
2021/04/28 01:27:59;;;;;;;8.65;6.28;;;5.70;99.90;;;;;;6283256;22;20055;-76
2021/04/28 01:30:41;;;;;;;9.35;6.50;;;5.70;99.90;;;;;;6284935;22;20090;-79
2021/04/28 01:33:13;;;;;;;9.38;7.30;;;5.60;99.90;;;;;;6284944;22;20015;-79
2021/04/28 01:35:48;;;;;;;9.38;7.30;;;5.70;99.90;;;;;;6308903;22;20061;-79
2021/04/28 01:38:22;;;;;;;13.00;7.65;;;5.60;99.90;;;;;;6281924;22;20019;-79
2021/04/28 01:40:55;;;;;;;10.07;8.07;;;5.60;99.90;;;;;;6256875;22;20023;-80
2021/04/28 01:43:29;;;;;;;9.40;7.03;;;5.60;99.90;;;;;;6257694;22;20101;-77
2021/04/28 01:46:02;;;;;;;11.77;8.05;;;5.60;99.90;;;;;;6257317;22;20101;-78
2021/04/28 01:48:34;;;;;;;12.37;7.67;;;5.50;99.90;;;;;;6283455;22;20011;-77
2021/04/28 01:51:07;;;;;;;10.97;7.67;;;5.50;99.90;;;;;;6259002;22;20261;-77
2021/04/28 01:53:39;;;;;;;10.37;7.57;;;5.50;99.90;;;;;;6283072;22;20030;-78
2021/04/28 01:56:12;;;;;;;9.95;7.10;;;5.50;99.90;;;;;;6284330;22;20249;-78
2021/04/28 01:58:55;;;;;;;10.68;7.18;;;5.40;99.90;;;;;;6286988;22;20078;-77
2021/04/28 02:01:48;;;;;;;9.30;7.05;;;5.40;99.90;;;;;;6262829;22;20015;-78
2021/04/28 02:04:21;;;;;;;11.68;8.02;;;5.40;99.90;;;;;;6282541;22;20061;-78
2021/04/28 02:06:53;;;;;;;12.45;7.38;;;5.30;99.90;;;;;;6283179;22;20415;-77
2021/04/28 02:09:24;;;;;;;10.68;7.63;;;5.30;99.90;;;;;;6283058;22;20034;-78
2021/04/28 02:11:56;;;;;;;10.57;7.10;;;5.20;99.90;;;;;;6284676;22;20012;-77
2021/04/28 02:14:33;;;;;;;12.65;7.28;;;5.20;99.90;;;;;;6258857;22;20042;-78
2021/04/28 02:17:05;;;;;;;9.77;6.87;;;5.20;99.90;;;;;;6259150;22;20482;-78
2021/04/28 02:19:43;;;;;;;14.43;7.53;;;5.20;99.90;;;;;;6283967;22;20046;-77
2021/04/28 02:22:15;;;;;;;10.23;6.97;;;5.20;99.90;;;;;;6259150;22;20015;-78
2021/04/28 02:24:51;;;;;;;11.45;7.45;;;5.10;99.90;;;;;;6259978;22;20023;-78
2021/04/28 02:27:30;;;;;;;10.55;7.20;;;5.10;99.90;;;;;;6259994;22;20084;-79
2021/04/28 02:30:05;;;;;;;12.15;7.85;;;5.10;99.90;;;;;;6283090;22;20065;-77
2021/04/28 02:32:38;;;;;;;10.35;7.13;;;5.10;99.90;;;;;;6284063;22;20011;-78
2021/04/28 02:35:41;;;;;;;11.52;8.65;;;5.10;99.90;;;;;;6307727;22;20090;-78
2021/04/28 02:38:23;;;;;;;9.32;7.15;;;5.10;99.90;;;;;;6257658;22;20046;-77
2021/04/28 02:41:16;;;;;;;10.68;7.43;;;5.10;99.90;;;;;;6286594;22;20019;-78
2021/04/28 02:43:50;;;;;;;12.82;8.25;;;5.00;99.90;;;;;;6257157;22;20518;-78
2021/04/28 02:46:26;;;;;;;9.15;6.97;;;5.00;99.90;;;;;;6258268;22;20016;-78
2021/04/28 02:48:59;;;;;;;9.00;7.47;;;5.00;99.90;;;;;;6281497;22;20025;-77
2021/04/28 02:51:34;;;;;;;13.90;8.27;;;5.00;99.90;;;;;;6309110;22;20026;-78
2021/04/28 02:54:05;;;;;;;9.77;7.57;;;5.00;99.90;;;;;;6256121;22;20030;-78
2021/04/28 02:56:37;;;;;;;;;;;5.00;99.90;;;;;;6257846;22;20098;-78
2021/04/28 02:59:08;;;;;;;9.75;7.15;;;5.00;99.90;;;;;;6281233;22;19921;-78
2021/04/28 03:01:41;;;;;;;9.63;7.95;;;5.00;99.90;;;;;;6256899;22;20019;-78
2021/04/28 03:04:15;;;;;;;11.07;8.70;;;4.90;99.90;;;;;;6256390;22;20054;-77
2021/04/28 03:07:04;;;;;;;10.73;8.05;;;4.90;99.90;;;;;;6260187;22;20026;-79
2021/04/28 03:09:35;;;;;;;14.05;8.23;;;4.90;99.90;;;;;;6281414;22;20057;-79
2021/04/28 03:12:14;;;;;;;11.32;7.88;;;4.90;99.90;;;;;;6279974;22;20394;-80
2021/04/28 03:14:51;;;;;;;10.75;7.60;;;4.90;99.90;;;;;;6256445;22;20026;-79
2021/04/28 03:17:24;;;;;;;14.67;8.47;;;4.80;99.90;;;;;;6256034;22;20015;-80
2021/04/28 03:20:03;;;;;;;9.98;7.28;;;4.80;99.90;;;;;;6256799;22;20019;-80
2021/04/28 03:22:40;;;;;;;11.45;8.23;;;4.70;99.90;;;;;;6280228;22;20026;-80
2021/04/28 03:25:13;;;;;;;11.32;7.88;;;4.70;99.90;;;;;;6255519;22;20015;-80
2021/04/28 03:27:49;;;;;;;10.68;8.15;;;4.70;99.90;;;;;;6279724;22;20023;-79
2021/04/28 03:30:22;;;;;;;11.18;7.70;;;4.60;99.90;;;;;;6255592;22;20019;-80
2021/04/28 03:32:53;;;;;;;10.77;8.13;;;4.50;99.90;;;;;;6279932;22;20023;-78
2021/04/28 03:35:33;;;;;;;10.55;8.30;;;4.50;99.90;;;;;;6308274;22;20101;-77
2021/04/28 03:38:29;;;;;;;12.07;7.75;;;4.50;99.90;;;;;;6262169;22;20015;-78
2021/04/28 03:41:04;;;;;;;10.48;7.78;;;4.40;99.90;;;;;;6280645;22;20030;-74
2021/04/28 03:43:36;;;;;;;10.75;8.00;;;4.50;99.90;;;;;;6308216;22;20035;-78
2021/04/28 03:46:07;;;;;;;12.23;7.72;;;4.50;99.90;;;;;;6280272;22;20037;-79
2021/04/28 03:48:49;;;;;;;11.38;8.48;;;4.40;99.90;;;;;;6283944;22;20015;-78
2021/04/28 03:51:22;;;;;;;10.75;7.78;;;4.40;99.90;;;;;;6280190;22;20011;-78
2021/04/28 03:54:13;;;;;;;10.55;7.93;;;4.40;99.90;;;;;;6306877;22;20027;-78
2021/04/28 03:56:48;;;;;;;14.68;8.80;;;4.40;99.90;;;;;;6256552;22;20023;-78
2021/04/28 03:59:19;;;;;;;16.98;9.55;;;4.50;99.90;;;;;;6280252;22;20102;-78
2021/04/28 04:01:54;;;;;;;14.50;9.13;;;4.40;99.90;;;;;;6256351;22;20019;-78
2021/04/28 04:04:34;;;;;;;13.80;9.40;;;4.50;99.90;;;;;;6255967;22;20293;-78
2021/04/28 04:07:41;;;;;;;26.45;12.60;;;4.40;99.90;;;;;;6266296;22;20027;-78
2021/04/28 04:10:28;;;;;;;18.13;11.30;;;4.40;99.90;;;;;;6259158;22;20015;-78
2021/04/28 04:13:00;;;;;;;22.15;11.88;;;4.40;99.90;;;;;;6255417;22;20019;-78
2021/04/28 04:15:31;;;;;;;17.80;10.80;;;4.40;99.90;;;;;;6281163;22;20439;-78
2021/04/28 04:18:04;;;;;;;13.55;9.02;;;4.40;99.90;;;;;;6256025;22;20383;-78
2021/04/28 04:20:43;;;;;;;12.88;9.05;;;4.30;99.90;;;;;;6257045;22;20015;-78
2021/04/28 04:23:19;;;;;;;12.77;8.57;;;4.30;99.90;;;;;;6279777;22;20046;-78
2021/04/28 04:26:20;;;;;;;13.95;9.38;;;4.30;99.90;;;;;;6152841;22;20037;-78
2021/04/28 04:29:02;;;;;;;12.48;8.57;;;4.30;99.90;;;;;;6307609;22;20027;-78
2021/04/28 04:31:54;;;;;;;18.73;10.75;;;4.30;99.90;;;;;;6306758;22;20077;-78
2021/04/28 04:34:45;;;;;;;23.63;12.95;;;4.30;99.90;;;;;;6284713;22;20029;-77
2021/04/28 04:37:39;;;;;;;23.33;11.95;;;4.30;99.90;;;;;;6229432;22;20023;-78
2021/04/28 04:40:31;;;;;;;13.73;9.40;;;4.40;99.90;;;;;;6259942;22;20019;-77
2021/04/28 04:43:23;;;;;;;16.15;9.13;;;4.40;99.90;;;;;;6258156;22;20026;-78
2021/04/28 04:46:29;;;;;;;16.92;11.25;;;4.40;99.90;;;;;;6212214;23;20442;-77
2021/04/28 04:49:01;;;;;;;21.33;11.63;;;4.40;99.90;;;;;;6264606;22;20102;-78
2021/04/28 04:51:32;;;;;;;23.10;13.13;;;4.30;99.90;;;;;;6281524;22;20037;-77
2021/04/28 04:54:04;;;;;;;17.90;10.75;;;4.40;99.90;;;;;;6255353;22;20012;-78
2021/04/28 04:56:31;;;;;;;18.50;10.18;;;4.30;99.90;;;;;;6279608;22;20023;-77
2021/04/28 04:59:03;;;;;;;18.65;10.68;;;4.30;99.90;;;;;;6280414;22;20094;-78
2021/04/28 05:01:34;;;;;;;23.13;12.20;;;4.30;99.90;;;;;;6280227;22;20019;-77
2021/04/28 05:04:05;;;;;;;21.05;12.43;;;4.40;99.90;;;;;;6280110;22;20039;-78
2021/04/28 05:06:37;;;;;;;29.75;15.35;;;4.40;99.90;;;;;;6307291;22;20015;-78
2021/04/28 05:09:08;;;;;;;29.33;16.08;;;4.40;99.90;;;;;;6250940;22;20098;-78
2021/04/28 05:11:34;;;;;;;33.72;17.85;;;4.50;99.90;;;;;;6278863;22;20447;-78
2021/04/28 05:14:06;;;;;;;35.75;17.08;;;4.50;99.90;;;;;;6279274;22;20039;-77
2021/04/28 05:16:37;;;;;;;25.92;14.32;;;4.50;99.90;;;;;;6254945;22;20011;-78
2021/04/28 05:19:08;;;;;;;26.50;13.98;;;4.60;99.90;;;;;;6281285;22;20086;-78
2021/04/28 05:21:39;;;;;;;30.15;15.23;;;4.70;99.90;;;;;;6255043;22;20019;-78
2021/04/28 05:24:11;;;;;;;34.15;16.00;;;4.70;99.90;;;;;;6280195;22;20042;-78
2021/04/28 05:27:07;;;;;;;33.30;17.25;;;4.70;99.90;;;;;;6307030;22;20354;-79
2021/04/28 05:29:39;;;;;;;34.33;16.63;;;4.80;99.90;;;;;;6280088;22;20043;-79
2021/04/28 05:32:10;;;;;;;34.45;17.73;;;4.90;99.90;;;;;;6252942;22;20042;-79
2021/04/28 05:34:37;;;;;;;37.58;16.80;;;4.90;99.90;;;;;;6273738;22;20015;-79
2021/04/28 05:37:12;;;;;;;43.42;22.98;;;5.00;99.90;;;;;;6279865;22;20011;-79
2021/04/28 05:39:44;;;;;;;41.50;23.08;;;5.00;99.90;;;;;;6280552;22;20081;-79
2021/04/28 05:42:17;;;;;;;42.88;26.73;;;5.10;99.90;;;;;;6308167;22;20376;-79
2021/04/28 05:44:47;;;;;;;78.78;45.50;;;5.20;99.90;;;;;;6246326;22;20617;-80
2021/04/28 05:47:20;;;;;;;116.80;50.97;;;5.20;99.90;;;;;;6298518;22;20080;-80
2021/04/28 05:49:48;;;;;;;82.90;41.97;;;5.20;99.90;;;;;;6270158;22;20015;-81
2021/04/28 05:52:17;;;;;;;129.32;45.00;;;5.30;99.90;;;;;;6269861;22;20341;-80
2021/04/28 05:54:50;;;;;;;;;;;5.30;99.90;;;;;;6251617;22;20525;-80
2021/04/28 05:57:21;;;;;;;23.92;13.38;;;5.30;99.90;;;;;;6277663;22;19937;-81
2021/04/28 05:59:53;;;;;;;18.95;12.32;;;5.40;99.90;;;;;;6277414;22;20102;-80
2021/04/28 06:02:24;;;;;;;82.13;33.08;;;5.40;99.90;;;;;;6277478;22;20653;-81
2021/04/28 06:04:55;;;;;;;71.20;31.15;;;5.40;99.90;;;;;;6303201;22;20015;-81
2021/04/28 06:07:27;;;;;;;23.08;14.88;;;5.40;99.90;;;;;;6253460;22;20102;-81
2021/04/28 06:09:58;;;;;;;65.30;28.48;;;5.40;99.90;;;;;;6305517;22;20455;-81
2021/04/28 06:12:29;;;;;;;101.40;41.97;;;5.40;99.90;;;;;;6256012;22;20042;-80
2021/04/28 06:14:55;;;;;;;158.40;59.40;;;5.40;99.90;;;;;;6280323;22;20019;-80
2021/04/28 06:17:27;;;;;;;66.28;30.23;;;5.40;99.90;;;;;;6255342;22;20045;-81
2021/04/28 06:19:58;;;;;;;38.28;19.00;;;5.40;99.90;;;;;;6281623;22;20023;-81
2021/04/28 06:22:30;;;;;;;51.20;19.63;;;5.50;99.90;;;;;;6280453;22;20329;-81
2021/04/28 06:25:02;;;;;;;71.93;30.00;;;5.60;99.90;;;;;;6308257;22;20403;-81
2021/04/28 06:27:33;;;;;;;114.63;45.83;;;5.70;99.90;;;;;;6282344;22;20020;-80
2021/04/28 06:30:06;;;;;;;52.35;21.55;;;5.80;99.90;;;;;;6278856;22;20436;-81
2021/04/28 06:32:33;;;;;;;25.15;14.75;;;5.90;99.90;;;;;;6277513;22;20043;-81
2021/04/28 06:35:01;;;;;;;39.40;25.08;;;6.00;99.90;;;;;;6254414;22;20096;-80
2021/04/28 06:37:33;;;;;;;24.88;16.05;;;6.10;99.90;;;;;;6256056;22;20107;-80
2021/04/28 06:40:06;;;;;;;24.30;17.30;;;6.20;99.90;;;;;;6256000;22;20447;-81
2021/04/28 06:42:33;;;;;;;20.90;15.27;;;6.20;99.90;;;;;;6254355;22;20023;-80
2021/04/28 06:45:06;;;;;;;21.55;16.55;;;6.40;99.90;;;;;;6307274;22;20356;-81
2021/04/28 06:47:38;;;;;;;21.65;14.63;;;6.40;99.90;;;;;;6281316;22;20440;-81
2021/04/28 06:50:10;;;;;;;20.65;15.30;;;6.50;99.90;;;;;;6280327;22;20011;-81
2021/04/28 06:52:44;;;;;;;24.20;15.98;;;6.60;99.90;;;;;;6255877;22;20293;-81
2021/04/28 06:55:11;;;;;;;35.75;20.30;;;6.70;99.90;;;;;;6255474;22;20023;-81
2021/04/28 06:57:43;;;;;;;31.55;18.65;;;6.80;99.90;;;;;;6306867;22;20015;-81
2021/04/28 07:00:10;;;;;;;31.10;18.73;;;6.90;99.90;;;;;;6281052;22;20054;-81
2021/04/28 07:02:41;;;;;;;20.27;14.60;;;7.00;99.90;;;;;;6281821;22;20046;-81
2021/04/28 07:05:08;;;;;;;22.92;15.00;;;7.10;99.90;;;;;;6305039;22;20050;-81
2021/04/28 07:07:39;;;;;;;31.38;18.95;;;7.30;99.90;;;;;;6255689;22;20022;-81
2021/04/28 07:10:11;;;;;;;30.02;19.00;;;7.40;99.90;;;;;;6305050;22;20128;-81
2021/04/28 07:12:43;;;;;;;21.40;14.80;;;7.50;99.90;;;;;;6279644;22;20015;-80
2021/04/28 07:15:14;;;;;;;22.30;14.02;;;7.60;99.90;;;;;;6306141;22;20086;-77
2021/04/28 07:17:49;;;;;;;21.88;15.55;;;7.90;99.90;;;;;;6306733;22;20094;-77
2021/04/28 07:20:20;;;;;;;30.92;19.80;;;8.00;99.90;;;;;;6279806;22;20515;-77
2021/04/28 07:22:55;;;;;;;25.02;16.60;;;8.10;99.90;;;;;;6284250;22;20538;-77
2021/04/28 07:25:26;;;;;;;28.00;17.85;;;8.30;99.90;;;;;;6313057;22;20419;-78
2021/04/28 07:27:58;;;;;;;30.13;19.02;;;8.50;99.90;;;;;;6261200;22;20047;-77
2021/04/28 07:30:30;;;;;;;33.53;20.17;;;8.70;99.90;;;;;;6286151;22;20102;-79
2021/04/28 07:33:02;;;;;;;21.42;15.55;;;8.90;99.90;;;;;;6284591;22;20354;-78
2021/04/28 07:35:33;;;;;;;26.45;16.00;;;9.00;99.90;;;;;;6258625;22;20011;-77
2021/04/28 07:37:59;;;;;;;30.58;19.55;;;9.20;99.90;;;;;;6283753;22;20058;-78
2021/04/28 07:40:25;;;;;;;20.52;15.38;;;9.30;99.90;;;;;;6283811;22;20101;-78
2021/04/28 07:42:57;;;;;;;25.80;18.52;;;9.50;99.90;;;;;;6284242;22;20448;-78
2021/04/28 07:45:28;;;;;;;25.75;18.13;;;9.70;99.90;;;;;;6285207;22;20107;-79
2021/04/28 07:48:00;;;;;;;23.58;16.50;;;9.90;99.90;;;;;;6285145;22;20015;-78
2021/04/28 07:50:31;;;;;;;20.95;15.27;;;10.20;99.90;;;;;;6284988;22;20414;-76
2021/04/28 07:53:03;;;;;;;21.02;15.18;;;10.40;99.90;;;;;;6254161;22;20011;-77
2021/04/28 07:55:36;;;;;;;20.83;14.48;;;10.60;99.90;;;;;;6254015;22;20098;-77
2021/04/28 07:58:07;;;;;;;25.40;16.73;;;10.90;99.90;;;;;;6254303;22;20026;-77
2021/04/28 08:00:38;;;;;;;20.30;15.25;;;11.00;99.90;;;;;;6279519;22;20025;-77
2021/04/28 08:03:10;;;;;;;24.70;16.02;;;11.20;99.90;;;;;;6253150;22;20093;-77
2021/04/28 08:05:41;;;;;;;35.22;15.07;;;11.40;99.90;;;;;;6253148;22;20098;-77
2021/04/28 08:08:12;;;;;;;19.20;14.23;;;11.50;99.90;;;;;;6277372;22;20420;-73
2021/04/28 08:10:44;;;;;;;18.40;15.45;;;11.70;99.90;;;;;;6253595;22;20015;-77
2021/04/28 08:13:15;;;;;;;21.17;14.13;;;11.80;99.90;;;;;;6277722;22;20095;-76
2021/04/28 08:15:47;;;;;;;20.98;14.30;;;12.00;99.90;;;;;;6278876;22;20138;-76
2021/04/28 08:18:18;;;;;;;20.48;15.13;;;12.10;99.90;;;;;;6279530;22;20090;-76
2021/04/28 08:20:45;;;;;;;18.75;13.82;;;12.20;99.90;;;;;;6278349;22;20094;-77
2021/04/28 08:23:16;;;;;;;21.70;12.48;;;12.30;99.90;;;;;;6279832;22;20428;-77
2021/04/28 08:25:47;;;;;;;20.05;14.60;;;12.40;99.90;;;;;;6253392;22;20402;-75
2021/04/28 08:28:18;;;;;;;17.33;13.77;;;12.60;99.90;;;;;;6278785;22;20015;-76
2021/04/28 08:30:45;;;;;;;18.52;13.52;;;12.80;99.90;;;;;;6278202;22;20041;-77
2021/04/28 08:33:16;;;;;;;18.10;13.48;;;12.90;99.90;;;;;;6278947;22;20072;-76
2021/04/28 08:35:47;;;;;;;18.23;13.80;;;13.00;99.90;;;;;;6305319;22;20090;-76
2021/04/28 08:38:19;;;;;;;18.10;12.60;;;13.20;99.90;;;;;;6253799;22;20094;-76
2021/04/28 08:40:51;;;;;;;18.45;13.52;;;13.40;99.90;;;;;;6254177;22;20110;-76
2021/04/28 08:43:22;;;;;;;17.80;12.43;;;13.60;99.90;;;;;;6277883;22;20022;-76
2021/04/28 08:45:53;;;;;;;21.20;12.70;;;13.80;99.90;;;;;;6253241;22;20114;-76
2021/04/28 08:48:25;;;;;;;15.52;11.10;;;14.00;99.90;;;;;;6253894;22;20019;-72
2021/04/28 08:50:57;;;;;;;15.00;11.85;;;14.10;99.90;;;;;;6305616;22;20436;-73
2021/04/28 08:53:31;;;;;;;16.40;11.10;;;14.30;99.30;;;;;;6277740;22;20444;-74
2021/04/28 08:56:09;;;;;;;14.32;9.85;;;14.40;98.60;;;;;;6253408;22;20094;-74
2021/04/28 08:58:41;;;;;;;11.75;9.73;;;14.60;97.00;;;;;;6277022;22;20050;-74
2021/04/28 09:01:07;;;;;;;12.52;9.23;;;14.80;95.60;;;;;;6252692;22;20084;-74
2021/04/28 09:03:41;;;;;;;11.75;8.98;;;15.00;93.80;;;;;;6305422;22;20022;-74
2021/04/28 09:06:33;;;;;;;15.63;10.52;;;15.10;92.50;;;;;;6304504;22;20090;-76
2021/04/28 09:09:05;;;;;;;12.43;9.63;;;15.20;91.30;;;;;;6261805;22;20046;-79
2021/04/28 09:11:39;;;;;;;11.83;8.83;;;15.30;90.30;;;;;;6266819;22;20412;-80
2021/04/28 09:14:22;;;;;;;13.05;8.82;;;15.50;89.50;;;;;;6265652;22;20328;-79
2021/04/28 09:17:05;;;;;;;14.27;8.45;;;15.70;90.00;;;;;;6291713;22;20030;-80
2021/04/28 09:20:13;;;;;;;15.48;10.55;;;15.90;87.70;;;;;;6240347;22;20077;-80
2021/04/28 09:23:08;;;;;;;;;;;16.00;84.70;;;;;;6318045;22;20482;-80
2021/04/28 09:25:58;;;;;;;10.30;8.63;;;16.20;83.00;;;;;;6274447;22;19915;-80
2021/04/28 09:28:31;;;;;;;12.07;9.35;;;16.30;82.30;;;;;;6292998;22;20019;-80
2021/04/28 09:31:08;;;;;;;14.15;9.88;;;16.40;80.50;;;;;;6291350;22;20447;-80
2021/04/28 09:33:55;;;;;;;12.32;9.52;;;16.40;80.20;;;;;;6290895;22;20042;-80
2021/04/28 09:36:37;;;;;;;13.05;8.93;;;16.50;78.60;;;;;;6266853;22;20106;-80
2021/04/28 09:39:18;;;;;;;14.68;9.77;;;16.60;76.30;;;;;;6290725;22;20426;-79
2021/04/28 09:42:00;;;;;;;11.52;9.55;;;16.70;74.60;;;;;;6291290;22;20031;-80
2021/04/28 09:44:33;;;;;;;11.60;8.67;;;16.80;74.60;;;;;;6293498;22;20094;-80
2021/04/28 09:47:06;;;;;;;12.82;8.98;;;17.00;73.30;;;;;;6267631;22;20038;-80
2021/04/28 09:49:54;;;;;;;15.40;8.73;;;17.00;70.10;;;;;;6269020;22;20046;-80
2021/04/28 09:52:28;;;;;;;12.27;9.27;;;17.10;68.70;;;;;;6268718;22;20103;-80
2021/04/28 09:55:06;;;;;;;10.95;9.20;;;17.20;67.60;;;;;;6319340;22;20086;-80
2021/04/28 09:57:50;;;;;;;14.52;8.77;;;17.30;66.90;;;;;;6267774;22;20042;-80
2021/04/28 10:00:29;;;;;;;11.30;7.88;;;17.30;64.80;;;;;;6292427;22;20100;-79
2021/04/28 10:03:02;;;;;;;12.63;9.85;;;17.40;67.10;;;;;;6319949;22;20407;-79
2021/04/28 10:05:37;;;;;;;;;;;17.60;66.30;;;;;;6309564;22;20093;-78
2021/04/28 10:08:22;;;;;;;11.65;8.30;;;17.80;63.90;;;;;;6283555;22;19915;-79
2021/04/28 10:10:54;;;;;;;11.95;8.38;;;18.00;62.00;;;;;;6285628;22;20015;-78
2021/04/28 10:13:26;;;;;;;17.00;9.63;;;18.10;61.30;;;;;;6310670;22;20098;-79
2021/04/28 10:15:58;;;;;;;10.48;8.20;;;18.10;59.20;;;;;;6311382;22;20088;-79
2021/04/28 10:18:33;;;;;;;12.55;9.48;;;18.30;60.50;;;;;;6260374;22;20098;-79
2021/04/28 10:21:05;;;;;;;13.93;9.45;;;18.40;58.30;;;;;;6285207;22;20016;-79
2021/04/28 10:23:36;;;;;;;13.98;8.73;;;18.40;56.60;;;;;;6311047;22;20018;-79
2021/04/28 10:26:07;;;;;;;11.90;9.15;;;18.40;56.90;;;;;;6283563;22;20015;-77
2021/04/28 10:28:40;;;;;;;12.70;8.73;;;18.50;56.90;;;;;;6256976;22;20026;-77
2021/04/28 10:31:11;;;;;;;11.98;9.35;;;18.60;57.90;;;;;;6279394;22;20025;-77
2021/04/28 10:33:43;;;;;;;10.27;7.88;;;18.80;57.70;;;;;;6306479;22;20105;-77
2021/04/28 10:36:15;;;;;;;17.88;9.68;;;18.90;56.80;;;;;;6280105;22;20042;-77
2021/04/28 10:38:41;;;;;;;12.23;9.25;;;18.90;54.30;;;;;;6253820;22;20034;-77
2021/04/28 10:41:39;;;;;;;12.32;9.32;;;18.70;53.20;;;;;;6305538;22;20022;-77
2021/04/28 10:44:32;;;;;;;14.93;10.60;;;18.60;53.40;;;;;;6306204;22;20049;-77
2021/04/28 10:47:27;;;;;;;12.05;9.43;;;18.60;55.10;;;;;;6279262;22;20098;-76
2021/04/28 10:49:58;;;;;;;11.90;8.27;;;18.50;55.20;;;;;;6265119;22;20025;-77
2021/04/28 10:52:30;;;;;;;12.82;9.55;;;18.40;53.50;;;;;;6254733;22;20058;-76
2021/04/28 10:55:03;;;;;;;10.20;8.50;;;18.40;53.90;;;;;;6277769;22;20421;-76
2021/04/28 10:57:36;;;;;;;9.98;8.73;;;18.40;54.00;;;;;;6280816;22;20098;-77
2021/04/28 11:00:20;;;;;;;;;;;18.70;54.80;;;;;;6279617;22;20019;-76
2021/04/28 11:02:51;;;;;;;10.23;8.50;;;18.80;54.00;;;;;;6254787;22;19950;-76
2021/04/28 11:05:27;;;;;;;11.75;8.98;;;19.00;53.60;;;;;;6278220;22;20098;-77
2021/04/28 11:07:59;;;;;;;11.27;8.27;;;19.10;52.20;;;;;;6254672;22;20053;-76
2021/04/28 11:10:32;;;;;;;11.07;7.53;;;19.20;52.20;;;;;;6279770;22;20094;-76
2021/04/28 11:13:15;;;;;;;10.23;7.38;;;19.20;52.20;;;;;;6277950;22;20015;-76
2021/04/28 11:15:52;;;;;;;14.38;8.20;;;19.20;52.50;;;;;;6253069;22;20018;-76
2021/04/28 11:18:34;;;;;;;9.23;7.70;;;19.30;52.90;;;;;;6253959;22;20444;-77
2021/04/28 11:21:17;;;;;;;11.27;8.02;;;19.40;52.00;;;;;;6277889;22;20354;-76
2021/04/28 11:24:07;;;;;;;10.65;8.75;;;19.40;51.00;;;;;;6305254;22;20022;-76
2021/04/28 11:26:35;;;;;;;12.82;8.90;;;19.40;50.30;;;;;;6305206;22;20098;-76
2021/04/28 11:29:07;;;;;;;11.63;9.02;;;19.30;50.90;;;;;;6305286;22;20094;-77
2021/04/28 11:31:50;;;;;;;14.45;9.55;;;19.30;51.20;;;;;;6278917;22;20066;-77
2021/04/28 11:34:24;;;;;;;12.82;9.77;;;19.40;52.50;;;;;;6275766;22;20486;-73
2021/04/28 11:36:57;;;;;;;12.98;9.15;;;19.50;51.80;;;;;;6305994;22;20026;-76
2021/04/28 11:39:43;;;;;;;15.82;8.90;;;19.50;51.50;;;;;;6305850;22;20399;-77
2021/04/28 11:42:17;;;;;;;14.63;9.50;;;19.30;51.90;;;;;;6278391;22;20022;-74
2021/04/28 11:44:53;;;;;;;14.02;8.98;;;19.30;52.10;;;;;;6278394;22;20019;-76
2021/04/28 11:47:27;;;;;;;12.90;10.35;;;19.50;52.10;;;;;;6278261;22;20015;-77
2021/04/28 11:49:58;;;;;;;12.95;9.13;;;19.70;53.10;;;;;;6304275;22;20223;-78
2021/04/28 11:52:36;;;;;;;13.18;10.48;;;19.80;51.70;;;;;;6278697;22;20019;-76
2021/04/28 11:55:07;;;;;;;11.43;8.70;;;19.80;50.90;;;;;;6278943;22;20096;-75
2021/04/28 11:57:39;;;;;;;16.33;9.40;;;19.70;50.80;;;;;;6304945;22;20015;-77
2021/04/28 12:00:13;;;;;;;10.57;9.18;;;19.50;50.70;;;;;;6253814;22;20097;-77
2021/04/28 12:02:45;;;;;;;10.75;9.05;;;19.40;51.40;;;;;;6253936;22;20015;-77
2021/04/28 12:05:23;;;;;;;14.65;9.90;;;19.50;51.70;;;;;;6279130;22;20019;-77
2021/04/28 12:07:54;;;;;;;11.65;9.52;;;19.60;51.80;;;;;;6277377;22;20452;-77
2021/04/28 12:10:25;;;;;;;12.88;8.27;;;19.70;51.40;;;;;;6276884;22;20173;-77
2021/04/28 12:12:56;;;;;;;12.55;9.40;;;19.60;52.00;;;;;;6253902;22;20017;-77
2021/04/28 12:15:28;;;;;;;12.45;8.95;;;19.60;51.50;;;;;;6277929;22;20018;-77
2021/04/28 12:17:54;;;;;;;10.07;8.98;;;19.70;52.30;;;;;;6305011;22;20035;-77
2021/04/28 12:20:26;;;;;;;14.95;9.13;;;19.60;52.10;;;;;;6278461;22;20057;-77
2021/04/28 12:22:58;;;;;;;13.52;8.85;;;19.40;53.10;;;;;;6251448;22;20127;-77
2021/04/28 12:25:29;;;;;;;12.82;9.50;;;19.10;53.30;;;;;;6277059;22;20025;-77
2021/04/28 12:28:00;;;;;;;12.25;9.13;;;19.00;53.60;;;;;;6276966;22;20347;-77
2021/04/28 12:30:32;;;;;;;11.52;8.93;;;18.90;53.80;;;;;;6278716;22;20019;-76
2021/04/28 12:33:04;;;;;;;12.57;9.25;;;19.00;53.60;;;;;;6277371;22;20736;-77
2021/04/28 12:35:36;;;;;;;12.75;9.07;;;19.00;53.20;;;;;;6279138;22;20039;-76
2021/04/28 12:38:10;;;;;;;13.85;9.73;;;19.00;53.40;;;;;;6279848;22;20495;-77
2021/04/28 12:40:48;;;;;;;11.40;9.35;;;19.10;54.20;;;;;;6305710;22;20019;-77
2021/04/28 12:43:23;;;;;;;12.32;8.43;;;19.10;53.30;;;;;;6278592;22;20050;-77
2021/04/28 12:46:11;;;;;;;8.93;7.78;;;19.00;53.20;;;;;;6308341;22;20041;-77
2021/04/28 12:49:01;;;;;;;12.27;8.68;;;19.10;53.80;;;;;;6283218;22;20110;-76
2021/04/28 12:51:33;;;;;;;13.35;10.45;;;19.30;53.30;;;;;;6281639;22;20029;-78
2021/04/28 12:54:05;;;;;;;14.27;8.27;;;19.40;53.20;;;;;;6281497;22;20041;-76
2021/04/28 12:56:39;;;;;;;9.55;7.13;;;19.40;53.60;;;;;;6256911;22;20015;-77
2021/04/28 12:59:15;;;;;;;10.98;7.25;;;19.30;51.30;;;;;;6282251;22;20012;-78
2021/04/28 13:02:06;;;;;;;11.18;7.35;;;19.40;52.30;;;;;;6280534;22;20419;-78
2021/04/28 13:04:47;;;;;;;9.65;7.03;;;19.40;51.20;;;;;;6280546;22;20011;-77
2021/04/28 13:07:23;;;;;;;8.32;6.72;;;19.50;50.60;;;;;;6262384;22;20043;-78
2021/04/28 13:10:11;;;;;;;10.98;6.68;;;19.60;51.00;;;;;;6282417;22;20022;-78
2021/04/28 13:12:45;;;;;;;14.20;7.28;;;19.80;50.80;;;;;;6282268;22;20007;-77
2021/04/28 13:15:16;;;;;;;9.32;7.72;;;20.10;50.20;;;;;;6279592;22;20074;-77
2021/04/28 13:18:05;;;;;;;13.68;7.70;;;20.20;49.70;;;;;;6308059;22;20086;-77
2021/04/28 13:20:32;;;;;;;10.70;7.60;;;20.30;49.50;;;;;;6307173;22;20025;-78